Terminal Aerodrome Forecast
Issued by NWS

Home | Current Version | Previous Version | Text Only | Print | Product List | Glossary On
Versions: 1 2 3 4 5 6 7 8 9 10 11 12
000
FTUS44 KEPZ 291136
TAFDMN
TAF
KDMN 291136Z 2912/3012 06007KT P6SM FEW100 BKN250
     FM291800 11010KT P6SM VCTS SCT070CB BKN140
     FM300300 13008KT P6SM FEW070 BKN250=

USA.gov is the U.S. government's official web portal to all federal, state and local government web resources and services.